createdAt,value
2018-07-30T00:00:23.557Z,26.21
2018-07-30T00:02:51.792Z,26.31
2018-07-30T00:05:20.060Z,26.31
2018-07-30T00:07:48.278Z,26.30
2018-07-30T00:10:16.520Z,26.28
2018-07-30T00:12:44.748Z,26.25
2018-07-30T00:15:13.057Z,26.18
2018-07-30T00:17:41.276Z,26.19
2018-07-30T00:20:09.633Z,26.17
2018-07-30T00:22:37.869Z,26.16
2018-07-30T00:25:06.128Z,26.16
2018-07-30T00:27:34.378Z,26.16
2018-07-30T00:30:02.612Z,26.14
2018-07-30T00:32:30.839Z,26.14
2018-07-30T00:34:59.075Z,26.13
2018-07-30T00:37:27.369Z,26.13
2018-07-30T00:39:55.600Z,26.09
2018-07-30T00:42:23.828Z,26.08
2018-07-30T00:44:52.060Z,26.04
2018-07-30T00:47:20.354Z,26.04
2018-07-30T00:49:48.580Z,26.02
2018-07-30T00:52:16.805Z,25.97
2018-07-30T00:54:45.025Z,25.92
2018-07-30T00:57:13.266Z,25.88
2018-07-30T00:59:41.499Z,25.81
2018-07-30T01:02:09.792Z,25.76
2018-07-30T01:04:38.063Z,25.71
2018-07-30T01:07:06.314Z,25.69
2018-07-30T01:09:34.552Z,25.65
2018-07-30T01:12:02.784Z,25.59
2018-07-30T01:14:31.172Z,25.55
2018-07-30T01:16:59.290Z,25.53
2018-07-30T01:19:27.552Z,25.50
2018-07-30T01:21:55.784Z,25.45
2018-07-30T01:24:24.041Z,25.42
2018-07-30T01:26:52.304Z,25.39
2018-07-30T01:29:20.541Z,25.33
2018-07-30T01:31:48.765Z,25.31
2018-07-30T01:34:17.000Z,25.24
2018-07-30T01:36:45.238Z,25.19
2018-07-30T01:39:13.472Z,25.14
2018-07-30T01:41:41.676Z,25.13
2018-07-30T01:44:09.965Z,25.12
2018-07-30T01:46:38.188Z,25.10
2018-07-30T01:49:06.406Z,25.09
2018-07-30T01:51:34.673Z,25.09
2018-07-30T01:54:02.905Z,25.07
2018-07-30T01:56:31.116Z,25.04
2018-07-30T01:58:59.324Z,25.04
2018-07-30T02:01:27.548Z,25.04
2018-07-30T02:03:55.841Z,24.98
2018-07-30T02:06:24.049Z,24.94
2018-07-30T02:08:52.852Z,24.88
2018-07-30T02:11:21.060Z,24.83
2018-07-30T02:13:49.272Z,24.74
2018-07-30T02:16:17.536Z,24.77
2018-07-30T02:18:45.826Z,24.77
2018-07-30T02:21:14.156Z,24.75
2018-07-30T02:23:42.389Z,24.71
2018-07-30T02:26:10.636Z,24.68
2018-07-30T02:28:38.860Z,24.68
2018-07-30T02:31:07.545Z,24.67
2018-07-30T02:33:35.793Z,24.67
2018-07-30T02:36:04.040Z,24.70
2018-07-30T02:38:32.256Z,24.72
2018-07-30T02:41:00.488Z,24.69
2018-07-30T02:43:28.828Z,24.68
2018-07-30T02:48:24.300Z,24.64
2018-07-30T02:50:52.555Z,24.63
2018-07-30T02:53:20.818Z,24.64
2018-07-30T02:55:49.105Z,24.67
2018-07-30T02:58:17.333Z,24.67
2018-07-30T03:00:45.572Z,24.67
2018-07-30T03:03:13.780Z,24.69
2018-07-30T03:05:42.684Z,24.69
2018-07-30T03:08:11.284Z,24.67
2018-07-30T03:10:39.596Z,24.63
2018-07-30T03:13:08.509Z,24.61
2018-07-30T03:15:36.796Z,24.60
2018-07-30T03:18:05.228Z,24.61
2018-07-30T03:20:33.501Z,24.60
2018-07-30T03:23:01.788Z,24.57
2018-07-30T03:25:29.996Z,24.56
2018-07-30T03:27:58.242Z,24.50
2018-07-30T03:30:26.465Z,24.48
2018-07-30T03:32:54.700Z,24.46
2018-07-30T03:35:22.913Z,24.45
2018-07-30T03:37:51.146Z,24.44
2018-07-30T03:40:19.366Z,24.43
2018-07-30T03:42:47.584Z,24.42
2018-07-30T03:45:15.817Z,24.42
2018-07-30T03:47:44.065Z,24.40
2018-07-30T03:50:14.544Z,24.39
2018-07-30T03:52:43.948Z,24.38
2018-07-30T03:55:12.200Z,24.36
2018-07-30T03:57:40.506Z,24.34
2018-07-30T04:00:10.969Z,24.29
2018-07-30T04:02:39.228Z,24.27
2018-07-30T04:05:07.530Z,24.25
2018-07-30T04:07:42.321Z,24.25
2018-07-30T04:10:11.014Z,24.23
2018-07-30T04:12:39.355Z,24.21
2018-07-30T04:15:08.418Z,24.17
2018-07-30T04:17:36.725Z,24.11
2018-07-30T04:20:04.980Z,24.08
2018-07-30T04:22:33.208Z,24.06
2018-07-30T04:25:01.440Z,24.05
2018-07-30T04:27:29.691Z,24.05
2018-07-30T04:29:57.922Z,24.06
2018-07-30T04:32:26.304Z,24.07
2018-07-30T04:34:54.516Z,24.08
2018-07-30T04:37:22.804Z,24.11
2018-07-30T04:39:51.036Z,24.13
2018-07-30T04:42:19.316Z,24.15
2018-07-30T04:44:47.557Z,24.17
2018-07-30T04:47:15.776Z,24.18
2018-07-30T04:49:44.016Z,24.19
2018-07-30T04:52:12.309Z,24.12
2018-07-30T04:54:40.560Z,23.94
2018-07-30T04:57:08.790Z,23.73
2018-07-30T04:59:37.008Z,23.53
2018-07-30T05:02:05.245Z,23.37
2018-07-30T05:04:33.473Z,23.25
2018-07-30T05:07:01.736Z,23.15
2018-07-30T05:09:29.939Z,23.09
2018-07-30T05:11:58.480Z,23.05
2018-07-30T05:14:26.650Z,23.02
2018-07-30T05:16:54.908Z,22.99
2018-07-30T05:19:23.249Z,22.99
2018-07-30T05:21:51.494Z,23.00
2018-07-30T05:24:19.692Z,23.01
2018-07-30T05:26:47.917Z,23.00
2018-07-30T05:29:16.176Z,23.00
2018-07-30T05:31:44.501Z,23.01
2018-07-30T05:34:12.668Z,23.00
2018-07-30T05:36:42.161Z,23.03
2018-07-30T05:39:11.470Z,23.05
2018-07-30T05:41:39.920Z,23.09
2018-07-30T05:44:08.408Z,23.11
2018-07-30T05:46:36.676Z,23.13
2018-07-30T05:49:05.173Z,23.16
2018-07-30T05:51:33.432Z,23.15
2018-07-30T05:54:01.657Z,23.18
2018-07-30T05:56:29.877Z,23.21
2018-07-30T05:58:58.120Z,23.24
2018-07-30T06:01:26.396Z,23.27
2018-07-30T06:03:54.724Z,23.29
2018-07-30T06:06:22.949Z,23.31
2018-07-30T06:08:51.252Z,23.33
2018-07-30T06:11:19.476Z,23.34
2018-07-30T06:13:47.800Z,23.37
2018-07-30T06:16:16.017Z,23.42
2018-07-30T06:18:44.281Z,23.46
2018-07-30T06:21:12.500Z,23.50
2018-07-30T06:23:40.802Z,23.55
2018-07-30T06:26:09.077Z,23.62
2018-07-30T06:28:37.280Z,23.68
2018-07-30T06:31:05.531Z,23.78
2018-07-30T06:33:33.733Z,23.84
2018-07-30T06:36:01.958Z,23.88
2018-07-30T06:38:30.472Z,23.94
2018-07-30T06:40:58.727Z,23.98
2018-07-30T06:43:27.408Z,24.02
2018-07-30T06:45:55.624Z,24.09
2018-07-30T06:48:23.844Z,24.18
2018-07-30T06:50:52.097Z,24.26
2018-07-30T06:53:20.424Z,24.32
2018-07-30T06:55:48.653Z,24.38
2018-07-30T06:58:17.168Z,24.44
2018-07-30T07:00:45.409Z,24.47
2018-07-30T07:03:13.679Z,24.52
2018-07-30T07:05:41.932Z,24.59
2018-07-30T07:08:10.336Z,24.63
2018-07-30T07:10:38.557Z,24.69
2018-07-30T07:13:06.776Z,24.72
2018-07-30T07:15:34.989Z,24.74
2018-07-30T07:18:03.317Z,24.77
2018-07-30T07:20:31.561Z,24.80
2018-07-30T07:22:59.809Z,24.83
2018-07-30T07:25:28.025Z,24.87
2018-07-30T07:27:56.300Z,24.92
2018-07-30T07:30:24.557Z,24.94
2018-07-30T07:32:52.772Z,24.96
2018-07-30T07:35:20.981Z,25.02
2018-07-30T07:37:49.300Z,25.06
2018-07-30T07:40:17.581Z,25.15
2018-07-30T07:42:45.853Z,25.15
2018-07-30T07:45:14.105Z,25.21
2018-07-30T07:47:42.326Z,25.26
2018-07-30T07:50:10.795Z,25.33
2018-07-30T07:52:38.913Z,25.37
2018-07-30T07:55:07.224Z,25.47
2018-07-30T07:57:35.441Z,25.51
2018-07-30T08:00:05.028Z,25.55
2018-07-30T08:02:33.244Z,25.61
2018-07-30T08:05:01.456Z,25.67
2018-07-30T08:07:29.671Z,25.74
2018-07-30T08:09:58.049Z,25.79
2018-07-30T08:12:26.201Z,25.84
2018-07-30T08:14:54.454Z,25.88
2018-07-30T08:17:22.700Z,25.94
2018-07-30T08:19:50.938Z,26.02
2018-07-30T08:22:19.180Z,26.07
2018-07-30T08:24:47.401Z,26.11
2018-07-30T08:27:15.641Z,26.18
2018-07-30T08:29:43.943Z,26.20
2018-07-30T08:32:12.155Z,26.26
2018-07-30T08:34:40.367Z,26.29
2018-07-30T08:37:08.866Z,26.33
2018-07-30T08:39:37.732Z,26.36
2018-07-30T08:42:06.149Z,26.39
2018-07-30T08:44:34.352Z,26.43
2018-07-30T08:47:02.573Z,26.45
2018-07-30T08:49:30.801Z,26.47
2018-07-30T08:51:59.060Z,26.45
2018-07-30T08:54:27.292Z,26.41
2018-07-30T08:56:55.540Z,26.39
2018-07-30T08:59:23.793Z,26.45
2018-07-30T09:01:52.033Z,26.45
2018-07-30T09:04:20.257Z,26.45
2018-07-30T09:06:48.520Z,26.45
2018-07-30T09:09:16.753Z,26.46
2018-07-30T09:11:44.960Z,26.48
2018-07-30T09:14:13.180Z,26.49
2018-07-30T09:16:41.447Z,26.51
2018-07-30T09:19:09.761Z,26.54
2018-07-30T09:21:38.062Z,26.55
2018-07-30T09:24:06.404Z,26.57
2018-07-30T09:26:34.618Z,26.58
2018-07-30T09:29:02.892Z,26.54
2018-07-30T09:31:31.200Z,26.57
2018-07-30T09:33:59.494Z,26.58
2018-07-30T09:36:27.724Z,26.61
2018-07-30T09:38:56.300Z,26.62
2018-07-30T09:41:24.616Z,26.65
2018-07-30T09:43:52.913Z,26.69
2018-07-30T09:46:21.176Z,26.72
2018-07-30T09:48:49.408Z,26.76
2018-07-30T09:51:17.624Z,26.79
2018-07-30T09:53:45.855Z,26.78
2018-07-30T09:56:14.153Z,26.87
2018-07-30T09:58:42.420Z,26.91
2018-07-30T10:01:16.170Z,26.92
2018-07-30T10:03:44.400Z,26.96
2018-07-30T10:06:12.688Z,26.96
2018-07-30T10:08:40.864Z,27.00
2018-07-30T10:11:09.104Z,27.05
2018-07-30T10:13:37.304Z,27.12
2018-07-30T10:16:05.556Z,27.16
2018-07-30T10:18:33.753Z,27.20
2018-07-30T10:21:01.982Z,27.28
2018-07-30T10:23:30.184Z,27.39
2018-07-30T10:25:58.416Z,27.42
2018-07-30T10:28:26.688Z,27.45
2018-07-30T10:30:54.902Z,27.50
2018-07-30T10:33:23.100Z,27.60
2018-07-30T10:35:51.312Z,27.72
2018-07-30T10:38:19.647Z,27.84
2018-07-30T10:40:47.753Z,27.96
2018-07-30T10:43:16.148Z,28.10
2018-07-30T10:45:44.427Z,28.22
2018-07-30T10:48:12.651Z,28.56
2018-07-30T10:50:40.897Z,28.81
2018-07-30T10:53:09.480Z,29.08
2018-07-30T10:55:37.728Z,29.35
2018-07-30T10:58:06.340Z,29.61
2018-07-30T11:00:34.580Z,29.84
2018-07-30T11:03:02.870Z,30.11
2018-07-30T11:05:31.180Z,30.29
2018-07-30T11:07:59.450Z,30.44
2018-07-30T11:10:27.720Z,30.57
2018-07-30T11:12:55.945Z,30.71
2018-07-30T11:15:24.415Z,30.90
2018-07-30T11:17:52.908Z,31.03
2018-07-30T11:20:21.109Z,31.18
2018-07-30T11:22:49.345Z,31.31
2018-07-30T11:25:17.629Z,31.51
2018-07-30T11:27:45.836Z,31.74
2018-07-30T11:30:14.064Z,31.90
2018-07-30T11:32:42.301Z,32.06
2018-07-30T11:35:10.536Z,32.19
2018-07-30T11:37:38.740Z,32.40
2018-07-30T11:40:07.017Z,32.67
2018-07-30T11:42:35.280Z,32.85
2018-07-30T11:45:03.516Z,32.90
2018-07-30T11:47:31.866Z,32.98
2018-07-30T11:50:00.065Z,32.91
2018-07-30T11:52:28.280Z,32.78
2018-07-30T11:54:56.516Z,32.81
2018-07-30T11:57:24.776Z,32.82
2018-07-30T11:59:53.008Z,32.92
2018-07-30T12:02:21.224Z,33.10
2018-07-30T12:04:49.453Z,33.30
2018-07-30T12:07:17.677Z,33.37
2018-07-30T12:09:45.901Z,33.44
2018-07-30T12:12:14.894Z,33.47
2018-07-30T12:14:43.129Z,33.48
2018-07-30T12:17:11.655Z,33.53
2018-07-30T12:19:39.884Z,33.59
2018-07-30T12:22:08.104Z,33.59
2018-07-30T12:24:36.332Z,33.52
2018-07-30T12:27:04.575Z,33.34
2018-07-30T12:29:32.776Z,33.19
2018-07-30T12:32:01.000Z,33.09
2018-07-30T12:34:29.216Z,33.10
2018-07-30T12:36:57.443Z,32.98
2018-07-30T12:39:25.668Z,32.77
2018-07-30T12:41:54.003Z,32.67
2018-07-30T12:44:22.172Z,32.70
2018-07-30T12:46:50.360Z,32.82
2018-07-30T12:49:18.597Z,33.00
2018-07-30T12:51:46.862Z,33.18
2018-07-30T12:54:15.092Z,33.34
2018-07-30T12:56:43.320Z,33.42
2018-07-30T12:59:11.529Z,33.51
2018-07-30T13:01:39.768Z,33.39
2018-07-30T13:04:08.368Z,33.30
2018-07-30T13:06:36.644Z,33.33
2018-07-30T13:09:07.039Z,33.39
2018-07-30T13:11:35.324Z,33.52
2018-07-30T13:14:03.645Z,33.54
2018-07-30T13:16:31.991Z,33.61
2018-07-30T13:19:00.196Z,33.86
2018-07-30T13:21:28.400Z,33.95
2018-07-30T13:23:56.612Z,33.99
2018-07-30T13:26:24.881Z,34.14
2018-07-30T13:28:53.057Z,34.27
2018-07-30T13:31:21.261Z,34.31
2018-07-30T13:33:49.495Z,34.26
2018-07-30T13:36:18.029Z,34.28
2018-07-30T13:38:46.236Z,34.32
2018-07-30T13:41:14.444Z,34.46
2018-07-30T13:43:42.656Z,34.65
2018-07-30T13:46:10.996Z,34.94
2018-07-30T13:48:39.198Z,34.78
2018-07-30T13:51:07.504Z,34.47
2018-07-30T13:53:35.712Z,34.23
2018-07-30T13:56:03.992Z,34.08
2018-07-30T13:58:32.283Z,33.95
2018-07-30T14:01:00.517Z,33.81
2018-07-30T14:03:28.708Z,33.63
2018-07-30T14:05:57.136Z,33.46
2018-07-30T14:08:25.366Z,33.35
2018-07-30T14:10:53.592Z,33.29
2018-07-30T14:13:21.858Z,33.26
2018-07-30T14:15:50.080Z,33.22
2018-07-30T14:18:18.266Z,33.10
2018-07-30T14:20:46.528Z,32.98
2018-07-30T14:23:14.816Z,32.88
2018-07-30T14:25:43.092Z,32.80
2018-07-30T14:28:11.313Z,32.80
2018-07-30T14:30:39.544Z,32.76
2018-07-30T14:33:07.752Z,32.73
2018-07-30T14:35:36.080Z,32.75
2018-07-30T14:38:04.344Z,32.80
2018-07-30T14:40:32.578Z,32.99
2018-07-30T14:43:00.793Z,33.21
2018-07-30T14:45:29.000Z,33.35
2018-07-30T14:47:57.244Z,33.52
2018-07-30T14:50:25.495Z,33.67
2018-07-30T14:52:53.737Z,33.77
2018-07-30T14:55:22.027Z,33.82
2018-07-30T14:57:50.244Z,33.77
2018-07-30T15:00:18.478Z,33.62
2018-07-30T15:02:46.751Z,33.47
2018-07-30T15:05:19.129Z,33.32
2018-07-30T15:07:47.392Z,33.25
2018-07-30T15:10:15.669Z,33.25
2018-07-30T15:12:43.920Z,33.17
2018-07-30T15:15:12.184Z,33.10
2018-07-30T15:17:40.405Z,33.02
2018-07-30T15:20:08.781Z,32.93
2018-07-30T15:22:37.125Z,32.82
2018-07-30T15:25:05.576Z,32.74
2018-07-30T15:27:33.892Z,32.64
2018-07-30T15:30:02.117Z,32.64
2018-07-30T15:32:30.365Z,32.74
2018-07-30T15:34:58.668Z,33.23
2018-07-30T15:37:26.931Z,33.87
2018-07-30T15:39:55.117Z,34.16
2018-07-30T15:42:23.367Z,34.16
2018-07-30T15:44:51.588Z,34.03
2018-07-30T15:47:19.869Z,33.86
2018-07-30T15:49:48.105Z,33.68
2018-07-30T15:52:16.336Z,33.59
2018-07-30T15:54:44.829Z,33.60
2018-07-30T15:57:13.093Z,33.62
2018-07-30T15:59:41.322Z,33.60
2018-07-30T16:02:09.550Z,33.49
2018-07-30T16:04:37.761Z,33.46
2018-07-30T16:07:05.988Z,33.39
2018-07-30T16:09:34.241Z,33.25
2018-07-30T16:12:02.480Z,33.14
2018-07-30T16:14:30.788Z,33.14
2018-07-30T16:16:58.992Z,33.78
2018-07-30T16:19:27.216Z,34.68
2018-07-30T16:21:55.472Z,35.58
2018-07-30T16:24:23.700Z,36.32
2018-07-30T16:26:51.947Z,36.46
2018-07-30T16:29:20.224Z,36.95
2018-07-30T16:31:48.444Z,37.55
2018-07-30T16:34:16.680Z,37.79
2018-07-30T16:36:45.018Z,38.07
2018-07-30T16:39:13.276Z,37.97
2018-07-30T16:41:41.590Z,37.70
2018-07-30T16:44:09.845Z,37.32
2018-07-30T16:46:38.088Z,36.70
2018-07-30T16:49:06.368Z,36.40
2018-07-30T16:51:34.640Z,36.46
2018-07-30T16:54:02.880Z,36.37
2018-07-30T16:56:31.100Z,36.60
2018-07-30T16:58:59.349Z,36.68
2018-07-30T17:01:27.568Z,36.80
2018-07-30T17:03:55.805Z,36.72
2018-07-30T17:06:24.094Z,36.49
2018-07-30T17:08:52.341Z,36.07
2018-07-30T17:11:20.533Z,35.85
2018-07-30T17:13:48.738Z,35.69
2018-07-30T17:16:16.968Z,35.51
2018-07-30T17:18:45.204Z,35.15
2018-07-30T17:21:13.592Z,34.88
2018-07-30T17:23:41.800Z,34.62
2018-07-30T17:26:10.064Z,34.55
2018-07-30T17:28:38.350Z,34.44
2018-07-30T17:31:06.701Z,34.45
2018-07-30T17:33:34.908Z,34.35
2018-07-30T17:36:03.200Z,34.33
2018-07-30T17:38:31.461Z,34.22
2018-07-30T17:40:59.672Z,34.15
2018-07-30T17:43:27.897Z,33.96
2018-07-30T17:45:56.144Z,33.77
2018-07-30T17:48:24.404Z,33.58
2018-07-30T17:50:52.767Z,33.42
2018-07-30T17:53:21.046Z,33.22
2018-07-30T17:55:49.260Z,33.09
2018-07-30T17:58:17.497Z,32.98
2018-07-30T18:00:45.713Z,32.85
2018-07-30T18:03:13.936Z,32.71
2018-07-30T18:05:42.252Z,32.62
2018-07-30T18:08:10.518Z,32.50
2018-07-30T18:10:38.804Z,32.41
2018-07-30T18:13:07.159Z,32.33
2018-07-30T18:15:36.219Z,32.26
2018-07-30T18:18:04.489Z,32.16
2018-07-30T18:20:32.692Z,32.09
2018-07-30T18:23:00.952Z,32.05
2018-07-30T18:25:29.501Z,31.99
2018-07-30T18:27:57.764Z,31.93
2018-07-30T18:30:25.996Z,31.87
2018-07-30T18:32:54.232Z,31.80
2018-07-30T18:35:22.505Z,31.75
2018-07-30T18:37:50.754Z,31.72
2018-07-30T18:40:18.957Z,31.68
2018-07-30T18:42:47.248Z,31.60
2018-07-30T18:45:15.568Z,31.54
2018-07-30T18:47:43.799Z,31.49
2018-07-30T18:50:12.021Z,31.43
2018-07-30T18:52:40.252Z,31.37
2018-07-30T18:55:08.506Z,31.32
2018-07-30T18:57:36.788Z,31.28
2018-07-30T19:00:05.796Z,31.22
2018-07-30T19:02:34.039Z,31.17
2018-07-30T19:05:02.381Z,31.09
2018-07-30T19:07:30.600Z,31.03
2018-07-30T19:09:58.857Z,30.99
2018-07-30T19:12:27.276Z,30.95
2018-07-30T19:14:55.486Z,30.90
2018-07-30T19:17:23.709Z,30.81
2018-07-30T19:19:51.973Z,30.70
2018-07-30T19:22:20.230Z,30.64
2018-07-30T19:24:48.407Z,30.53
2018-07-30T19:27:16.648Z,30.43
2018-07-30T19:29:44.872Z,30.37
2018-07-30T19:32:13.084Z,30.27
2018-07-30T19:34:41.304Z,30.20
2018-07-30T19:37:09.592Z,30.13
2018-07-30T19:39:37.847Z,30.05
2018-07-30T19:42:06.101Z,29.96
2018-07-30T19:44:34.358Z,29.89
2018-07-30T19:47:02.585Z,29.80
2018-07-30T19:49:30.822Z,29.72
2018-07-30T19:51:59.131Z,29.64
2018-07-30T19:54:27.348Z,29.58
2018-07-30T19:56:55.592Z,29.50
2018-07-30T19:59:23.824Z,29.45
2018-07-30T20:01:52.358Z,29.38
2018-07-30T20:04:20.615Z,29.34
2018-07-30T20:06:48.937Z,29.29
2018-07-30T20:09:17.126Z,29.23
2018-07-30T20:11:45.382Z,29.16
2018-07-30T20:14:13.640Z,29.11
2018-07-30T20:16:41.892Z,29.07
2018-07-30T20:19:10.128Z,29.02
2018-07-30T20:21:38.416Z,28.96
2018-07-30T20:24:06.643Z,28.93
2018-07-30T20:26:35.128Z,28.89
2018-07-30T20:29:03.388Z,28.84
2018-07-30T20:31:31.628Z,28.80
2018-07-30T20:33:59.831Z,28.73
2018-07-30T20:36:28.109Z,28.67
2018-07-30T20:38:56.390Z,28.61
2018-07-30T20:41:24.628Z,28.55
2018-07-30T20:43:53.524Z,28.50
2018-07-30T20:46:21.818Z,28.45
2018-07-30T20:48:50.064Z,28.40
2018-07-30T20:51:18.280Z,28.34
2018-07-30T20:53:46.521Z,28.31
2018-07-30T20:56:14.760Z,28.28
2018-07-30T20:58:42.995Z,28.25
2018-07-30T21:01:11.253Z,28.22
2018-07-30T21:03:39.509Z,28.19
2018-07-30T21:06:07.764Z,28.17
2018-07-30T21:08:36.032Z,28.14
2018-07-30T21:11:04.268Z,28.10
2018-07-30T21:13:32.528Z,28.06
2018-07-30T21:16:00.749Z,28.06
2018-07-30T21:18:29.052Z,28.05
2018-07-30T21:20:57.303Z,28.06
2018-07-30T21:23:25.547Z,28.04
2018-07-30T21:25:53.774Z,28.00
2018-07-30T21:28:21.968Z,27.98
2018-07-30T21:30:50.212Z,27.96
2018-07-30T21:33:18.437Z,27.96
2018-07-30T21:35:47.081Z,27.93
2018-07-30T21:38:15.292Z,27.88
2018-07-30T21:40:43.517Z,27.84
2018-07-30T21:43:11.889Z,27.81
2018-07-30T21:45:40.110Z,27.77
2018-07-30T21:48:08.444Z,27.75
2018-07-30T21:50:36.668Z,27.74
2018-07-30T21:53:05.160Z,27.69
2018-07-30T21:55:33.918Z,27.63
2018-07-30T21:58:02.212Z,27.60
2018-07-30T22:00:30.464Z,27.60
2018-07-30T22:02:58.707Z,27.56
2018-07-30T22:05:27.095Z,27.51
2018-07-30T22:07:55.316Z,27.49
2018-07-30T22:10:24.701Z,27.43
2018-07-30T22:12:54.724Z,27.40
2018-07-30T22:15:23.686Z,27.39
2018-07-30T22:17:51.933Z,27.40
2018-07-30T22:20:20.173Z,27.42
2018-07-30T22:22:48.385Z,27.41
2018-07-30T22:25:16.665Z,27.40
2018-07-30T22:27:45.021Z,27.35
2018-07-30T22:30:13.344Z,27.32
2018-07-30T22:32:41.576Z,27.28
2018-07-30T22:35:10.144Z,27.26
2018-07-30T22:37:38.356Z,27.22
2018-07-30T22:40:07.765Z,27.20
2018-07-30T22:42:36.021Z,27.18
2018-07-30T22:45:04.308Z,27.17
2018-07-30T22:47:32.580Z,27.15
2018-07-30T22:50:00.785Z,27.13
2018-07-30T22:52:29.014Z,27.11
2018-07-30T22:54:57.265Z,27.09
2018-07-30T22:57:25.480Z,27.04
2018-07-30T22:59:53.712Z,27.01
2018-07-30T23:02:21.936Z,27.05
2018-07-30T23:04:50.224Z,27.04
2018-07-30T23:07:18.424Z,27.01
2018-07-30T23:09:46.664Z,27.00
2018-07-30T23:12:14.924Z,26.98
2018-07-30T23:14:43.136Z,26.97
2018-07-30T23:17:11.360Z,26.95
2018-07-30T23:19:39.584Z,26.92
2018-07-30T23:22:07.793Z,26.89
2018-07-30T23:24:35.996Z,26.87
2018-07-30T23:27:04.215Z,26.86
2018-07-30T23:29:32.421Z,26.84
2018-07-30T23:32:00.621Z,26.77
2018-07-30T23:34:28.896Z,26.74
2018-07-30T23:36:57.131Z,26.71
2018-07-30T23:39:25.329Z,26.65
2018-07-30T23:41:53.546Z,26.57
2018-07-30T23:44:21.780Z,26.52
2018-07-30T23:46:50.101Z,26.50
2018-07-30T23:49:18.386Z,26.46
2018-07-30T23:51:46.623Z,26.40
2018-07-30T23:54:14.852Z,26.36
2018-07-30T23:56:43.087Z,26.33
2018-07-30T23:59:11.301Z,26.31
